CEX9 weather

Brant (Dixon Farm) Airport
Brant, Alberta, Canada

Public forecast

Using degrees Celsius for public forecast. Weather courtesy of forecast.io.

Closest aviation weather report (METAR) to Brant (Dixon Farm) Airport

Closest report is Calgary International Airport, 45.5 nm (84.3 km) NNW. Retrieved 2019/10/18 12:00 UTC (34 minutes ago):

CYYC 181200Z 21007KT 15SM SCT170 BKN220 04/M04 A2939 RMK AC3CI2 SLP974 DENSITY ALT 3800FT

Closest aviation forecast (TAF) to Brant (Dixon Farm) Airport

Closest forecast is Calgary International Airport, 45.5 nm (84.3 km) NNW. Retrieved 2019/10/18 12:42 UTC (0 seconds ago):

TAF CYYC 181139Z 1812/1912 27005KT P6SM SCT100 BKN160 BECMG 1818/1820 29015G25KT FM182000 28018G28KT P6SM FEW200 BECMG 1900/1902 28012KT BECMG 1902/1904 22005KT RMK NXT FCST BY 181500Z